createdAt,value
2019-02-11T00:00:05.890Z,264.07
2019-02-11T00:01:05.966Z,264.61
2019-02-11T00:02:06.206Z,263.50
2019-02-11T00:03:06.425Z,264.97
2019-02-11T00:04:06.649Z,262.92
2019-02-11T00:05:07.113Z,264.07
2019-02-11T00:06:07.064Z,262.52
2019-02-11T00:07:07.274Z,264.56
2019-02-11T00:08:07.560Z,263.99
2019-02-11T00:09:07.704Z,262.93
2019-02-11T00:10:07.946Z,262.52
2019-02-11T00:11:08.138Z,263.56
2019-02-11T00:12:08.353Z,265.84
2019-02-11T00:13:10.665Z,266.10
2019-02-11T00:14:08.780Z,266.04
2019-02-11T00:15:09.036Z,263.52
2019-02-11T00:16:09.285Z,264.11
2019-02-11T00:17:09.445Z,265.03
2019-02-11T00:18:09.664Z,262.68
2019-02-11T00:19:11.043Z,266.34
2019-02-11T00:20:10.155Z,265.50
2019-02-11T00:21:10.340Z,265.12
2019-02-11T00:22:10.557Z,264.81
2019-02-11T00:23:10.788Z,263.78
2019-02-11T00:24:10.986Z,262.90
2019-02-11T00:25:11.343Z,264.30
2019-02-11T00:26:11.415Z,263.27
2019-02-11T00:27:11.632Z,263.78
2019-02-11T00:28:11.864Z,266.03
2019-02-11T00:29:12.047Z,264.84
2019-02-11T00:30:12.304Z,264.05
2019-02-11T00:31:12.501Z,265.09
2019-02-11T00:32:12.697Z,265.59
2019-02-11T00:33:13.068Z,264.21
2019-02-11T00:34:13.136Z,263.70
2019-02-11T00:35:13.421Z,265.50
2019-02-11T00:36:13.578Z,265.99
2019-02-11T00:37:13.804Z,263.90
2019-02-11T00:38:14.040Z,264.63
2019-02-11T00:39:14.216Z,263.79
2019-02-11T00:40:14.456Z,262.64
2019-02-11T00:41:14.767Z,264.81
2019-02-11T00:42:14.862Z,264.06
2019-02-11T00:43:19.146Z,265.57
2019-02-11T00:44:15.298Z,262.71
2019-02-11T00:45:15.527Z,266.58
2019-02-11T00:46:15.731Z,265.18
2019-02-11T00:47:15.944Z,265.60
2019-02-11T00:48:16.176Z,264.45
2019-02-11T00:49:16.417Z,263.23
2019-02-11T00:50:16.596Z,265.64
2019-02-11T00:51:16.774Z,265.61
2019-02-11T00:52:17.003Z,265.67
2019-02-11T00:53:17.244Z,264.21
2019-02-11T00:54:17.449Z,265.31
2019-02-11T00:55:17.699Z,266.69
2019-02-11T00:56:17.850Z,266.69
2019-02-11T00:57:18.126Z,263.31
2019-02-11T00:58:18.386Z,265.09
2019-02-11T00:59:18.522Z,265.58
2019-02-11T01:00:18.770Z,264.24
2019-02-11T01:01:18.940Z,263.39
2019-02-11T01:02:19.171Z,266.07
2019-02-11T01:03:19.414Z,265.86
2019-02-11T01:04:19.613Z,264.44
2019-02-11T01:05:19.878Z,264.07
2019-02-11T01:06:20.176Z,265.95
2019-02-11T01:07:20.266Z,263.40
2019-02-11T01:08:20.493Z,264.48
2019-02-11T01:09:20.691Z,265.06
2019-02-11T01:10:20.915Z,265.77
2019-02-11T01:11:21.126Z,264.42
2019-02-11T01:12:21.325Z,264.99
2019-02-11T01:13:27.569Z,263.05
2019-02-11T01:14:22.886Z,263.23
2019-02-11T01:15:21.988Z,263.46
2019-02-11T01:16:22.215Z,264.97
2019-02-11T01:17:22.415Z,267.17
2019-02-11T01:18:22.661Z,265.93
2019-02-11T01:19:22.860Z,265.24
2019-02-11T01:20:23.084Z,264.04
2019-02-11T01:21:23.308Z,265.53
2019-02-11T01:22:23.562Z,265.75
2019-02-11T01:23:23.729Z,263.88
2019-02-11T01:24:23.954Z,265.19
2019-02-11T01:25:24.168Z,267.44
2019-02-11T01:26:24.390Z,265.78
2019-02-11T01:27:24.578Z,265.04
2019-02-11T01:28:24.817Z,265.76
2019-02-11T01:29:25.008Z,266.70
2019-02-11T01:30:25.440Z,263.58
2019-02-11T01:31:25.520Z,264.55
2019-02-11T01:32:25.695Z,264.84
2019-02-11T01:33:25.936Z,265.09
2019-02-11T01:34:26.120Z,267.35
2019-02-11T01:35:26.356Z,265.07
2019-02-11T01:36:26.584Z,266.57
2019-02-11T01:37:26.772Z,266.44
2019-02-11T01:38:27.040Z,264.27
2019-02-11T01:39:27.323Z,265.50
2019-02-11T01:40:27.437Z,265.96
2019-02-11T01:41:27.664Z,267.86
2019-02-11T01:42:28.086Z,267.67
2019-02-11T01:43:35.656Z,266.10
2019-02-11T01:44:29.274Z,265.26
2019-02-11T01:45:28.523Z,264.38
2019-02-11T01:46:28.745Z,268.77
2019-02-11T01:47:29.074Z,265.65
2019-02-11T01:48:29.179Z,265.98
2019-02-11T01:49:29.363Z,265.72
2019-02-11T01:50:29.624Z,266.41
2019-02-11T01:51:29.826Z,265.96
2019-02-11T01:52:30.019Z,266.73
2019-02-11T01:53:30.257Z,266.22
2019-02-11T01:54:30.455Z,267.46
2019-02-11T01:55:30.774Z,267.89
2019-02-11T01:56:30.887Z,269.26
2019-02-11T01:57:31.092Z,265.51
2019-02-11T01:58:31.324Z,268.52
2019-02-11T01:59:31.524Z,267.48
2019-02-11T02:00:31.731Z,268.23
2019-02-11T02:01:31.972Z,267.72
2019-02-11T02:02:32.183Z,268.99
2019-02-11T02:03:32.447Z,269.26
2019-02-11T02:04:32.588Z,265.87
2019-02-11T02:05:32.837Z,268.00
2019-02-11T02:06:33.062Z,268.13
2019-02-11T02:07:33.246Z,267.13
2019-02-11T02:08:33.486Z,268.96
2019-02-11T02:09:33.687Z,266.22
2019-02-11T02:10:33.901Z,269.59
2019-02-11T02:11:34.192Z,265.81
2019-02-11T02:12:34.359Z,268.07
2019-02-11T02:13:34.546Z,267.66
2019-02-11T02:14:34.761Z,268.15
2019-02-11T02:15:34.988Z,267.48
2019-02-11T02:16:35.195Z,267.91
2019-02-11T02:17:35.408Z,269.36
2019-02-11T02:18:35.640Z,267.01
2019-02-11T02:19:35.874Z,266.53
2019-02-11T02:20:36.263Z,266.35
2019-02-11T02:21:36.343Z,265.77
2019-02-11T02:22:36.556Z,266.60
2019-02-11T02:23:36.767Z,268.90
2019-02-11T02:24:37.029Z,266.13
2019-02-11T02:25:37.223Z,264.88
2019-02-11T02:26:37.457Z,267.57
2019-02-11T02:27:37.631Z,268.83
2019-02-11T02:28:37.980Z,266.61
2019-02-11T02:29:38.093Z,265.68
2019-02-11T02:30:38.296Z,267.44
2019-02-11T02:31:38.522Z,266.33
2019-02-11T02:32:38.709Z,266.49
2019-02-11T02:33:38.925Z,267.64
2019-02-11T02:34:39.187Z,266.47
2019-02-11T02:35:39.403Z,266.56
2019-02-11T02:36:39.639Z,268.06
2019-02-11T02:37:39.788Z,267.68
2019-02-11T02:38:40.002Z,265.23
2019-02-11T02:39:40.277Z,268.18
2019-02-11T02:40:40.439Z,266.02
2019-02-11T02:41:40.740Z,268.99
2019-02-11T02:42:40.863Z,266.34
2019-02-11T02:43:41.090Z,267.56
2019-02-11T02:44:41.414Z,266.45
2019-02-11T02:45:41.557Z,266.46
2019-02-11T02:46:41.766Z,268.17
2019-02-11T02:47:41.957Z,267.68
2019-02-11T02:48:42.181Z,265.97
2019-02-11T02:49:42.424Z,267.09
2019-02-11T02:50:42.610Z,268.71
2019-02-11T02:51:42.846Z,268.22
2019-02-11T02:52:43.056Z,268.45
2019-02-11T02:53:43.419Z,267.94
2019-02-11T02:54:43.516Z,267.89
2019-02-11T02:55:43.702Z,267.60
2019-02-11T02:56:43.935Z,266.12
2019-02-11T02:57:44.143Z,215.16
2019-02-11T02:58:44.348Z,215.20
2019-02-11T02:59:44.573Z,215.20
2019-02-11T03:00:44.797Z,215.20
2019-02-11T03:01:45.348Z,215.31
2019-02-11T03:02:45.197Z,215.39
2019-02-11T03:03:45.416Z,215.34
2019-02-11T03:04:45.632Z,215.33
2019-02-11T03:05:45.870Z,215.38
2019-02-11T03:06:46.079Z,215.37
2019-02-11T03:07:46.275Z,215.45
2019-02-11T03:08:46.491Z,215.50
2019-02-11T03:09:46.817Z,215.49
2019-02-11T03:10:46.919Z,215.47
2019-02-11T03:11:47.138Z,215.53
2019-02-11T03:12:47.336Z,215.51
2019-02-11T03:13:47.553Z,215.53
2019-02-11T03:14:47.782Z,215.57
2019-02-11T03:15:48.003Z,215.59
2019-02-11T03:16:48.198Z,215.51
2019-02-11T03:17:48.465Z,215.53
2019-02-11T03:18:48.623Z,215.57
2019-02-11T03:19:49.065Z,215.50
2019-02-11T03:20:49.041Z,215.53
2019-02-11T03:21:49.263Z,215.51
2019-02-11T03:22:49.475Z,215.51
2019-02-11T03:23:49.730Z,215.47
2019-02-11T03:24:49.942Z,215.49
2019-02-11T03:25:50.157Z,215.53
2019-02-11T03:26:50.482Z,215.50
2019-02-11T03:27:50.665Z,215.45
2019-02-11T03:28:50.920Z,215.45
2019-02-11T03:29:51.148Z,215.45
2019-02-11T03:30:51.365Z,215.42
2019-02-11T03:31:51.610Z,215.42
2019-02-11T03:32:51.786Z,215.47
2019-02-11T03:33:52.057Z,215.42
2019-02-11T03:34:52.390Z,215.48
2019-02-11T03:35:52.492Z,215.46
2019-02-11T03:36:52.692Z,215.51
2019-02-11T03:37:52.929Z,215.46
2019-02-11T03:38:53.192Z,215.53
2019-02-11T03:39:53.407Z,215.46
2019-02-11T03:40:53.612Z,215.48
2019-02-11T03:41:53.835Z,215.49
2019-02-11T03:42:54.142Z,215.49
2019-02-11T03:43:54.273Z,215.46
2019-02-11T03:44:54.507Z,215.47
2019-02-11T03:45:54.712Z,215.46
2019-02-11T03:46:54.942Z,215.45
2019-02-11T03:47:55.172Z,215.36
2019-02-11T03:48:55.367Z,215.34
2019-02-11T03:49:55.616Z,215.34
2019-02-11T03:50:55.892Z,215.33
2019-02-11T03:51:56.069Z,215.31
2019-02-11T03:52:56.286Z,215.33
2019-02-11T03:53:56.514Z,215.27
2019-02-11T03:54:56.713Z,215.20
2019-02-11T03:55:57.012Z,215.16
2019-02-11T03:56:57.186Z,215.16
2019-02-11T03:57:57.412Z,215.13
2019-02-11T03:58:57.647Z,215.08
2019-02-11T03:59:57.842Z,214.97
2019-02-11T04:00:58.025Z,215.00
2019-02-11T04:01:58.275Z,215.00
2019-02-11T04:02:58.444Z,215.00
2019-02-11T04:03:58.660Z,214.91
2019-02-11T04:04:58.882Z,214.96
2019-02-11T04:05:59.099Z,214.92
2019-02-11T04:06:59.553Z,214.87
2019-02-11T04:07:59.733Z,214.87
2019-02-11T04:08:59.809Z,214.79
2019-02-11T04:10:00.038Z,214.78
2019-02-11T04:11:00.258Z,214.83
2019-02-11T04:12:00.487Z,214.78
2019-02-11T04:13:00.715Z,214.72
2019-02-11T04:14:00.918Z,214.74
2019-02-11T04:15:01.159Z,214.72
2019-02-11T04:16:01.438Z,214.68
2019-02-11T04:17:01.588Z,214.69
2019-02-11T04:18:01.825Z,214.64
2019-02-11T04:19:02.025Z,214.56
2019-02-11T04:20:02.259Z,214.54
2019-02-11T04:21:02.450Z,214.51
2019-02-11T04:22:02.702Z,214.48
2019-02-11T04:23:02.932Z,214.44
2019-02-11T04:24:03.190Z,214.34
2019-02-11T04:25:03.350Z,214.41
2019-02-11T04:26:03.551Z,214.40
2019-02-11T04:27:03.784Z,214.30
2019-02-11T04:28:04.027Z,214.33
2019-02-11T04:29:04.234Z,214.24
2019-02-11T04:30:04.474Z,214.34
2019-02-11T04:31:04.684Z,214.27
2019-02-11T04:32:04.930Z,214.22
2019-02-11T04:33:05.117Z,214.27
2019-02-11T04:34:05.357Z,214.20
2019-02-11T04:35:05.573Z,214.16
2019-02-11T04:36:05.798Z,214.15
2019-02-11T04:37:06.046Z,214.13
2019-02-11T04:38:06.269Z,214.14
2019-02-11T04:39:06.453Z,214.09
2019-02-11T04:40:06.708Z,214.01
2019-02-11T04:41:07.004Z,213.99
2019-02-11T04:42:07.158Z,214.02
2019-02-11T04:43:07.381Z,213.99
2019-02-11T04:44:07.599Z,213.90
2019-02-11T04:45:07.847Z,213.90
2019-02-11T04:46:08.068Z,213.90
2019-02-11T04:47:08.287Z,213.86
2019-02-11T04:48:08.522Z,213.86
2019-02-11T04:49:08.793Z,213.88
2019-02-11T04:50:08.954Z,213.87
2019-02-11T04:51:09.179Z,213.90
2019-02-11T04:52:09.405Z,213.85
2019-02-11T04:53:09.652Z,213.87
2019-02-11T04:54:09.824Z,213.85
2019-02-11T04:55:10.062Z,213.79
2019-02-11T04:56:10.301Z,213.84
2019-02-11T04:57:10.577Z,213.74
2019-02-11T04:58:10.734Z,213.78
2019-02-11T04:59:10.935Z,213.81
2019-02-11T05:00:11.158Z,213.82
2019-02-11T05:01:11.414Z,213.76
2019-02-11T05:02:11.859Z,213.76
2019-02-11T05:03:11.860Z,213.76
2019-02-11T05:04:12.071Z,213.76
2019-02-11T05:05:12.357Z,213.74
2019-02-11T05:06:12.490Z,213.74
2019-02-11T05:07:12.743Z,213.78
2019-02-11T05:08:12.981Z,213.73
2019-02-11T05:09:13.165Z,213.78
2019-02-11T05:10:13.380Z,213.72
2019-02-11T05:11:13.637Z,213.76
2019-02-11T05:12:13.820Z,213.74
2019-02-11T05:13:14.134Z,213.73
2019-02-11T05:14:14.320Z,213.76
2019-02-11T05:15:14.511Z,213.66
2019-02-11T05:16:14.747Z,213.69
2019-02-11T05:17:14.952Z,213.72
2019-02-11T05:18:16.860Z,213.74
2019-02-11T05:19:15.467Z,213.76
2019-02-11T05:20:15.636Z,213.69
2019-02-11T05:21:15.889Z,213.71
2019-02-11T05:22:16.203Z,213.67
2019-02-11T05:23:16.316Z,213.72
2019-02-11T05:24:16.519Z,213.66
2019-02-11T05:25:16.744Z,213.69
2019-02-11T05:26:16.980Z,213.65
2019-02-11T05:27:17.200Z,213.66
2019-02-11T05:28:17.405Z,213.66
2019-02-11T05:29:17.630Z,213.66
2019-02-11T05:30:17.970Z,213.67
2019-02-11T05:31:18.096Z,213.70
2019-02-11T05:32:18.314Z,213.64
2019-02-11T05:33:18.568Z,213.69
2019-02-11T05:34:18.749Z,213.58
2019-02-11T05:35:18.970Z,213.63
2019-02-11T05:36:19.208Z,213.59
2019-02-11T05:37:19.441Z,213.60
2019-02-11T05:38:19.721Z,213.52
2019-02-11T05:39:19.836Z,213.50
2019-02-11T05:40:20.067Z,213.55
2019-02-11T05:41:20.303Z,213.50
2019-02-11T05:42:20.509Z,213.49
2019-02-11T05:43:20.748Z,213.45
2019-02-11T05:44:20.969Z,213.46
2019-02-11T05:45:21.171Z,213.46
2019-02-11T05:46:21.482Z,213.52
2019-02-11T05:47:21.635Z,213.51
2019-02-11T05:48:21.862Z,213.50
2019-02-11T05:49:22.106Z,213.46
2019-02-11T05:50:22.331Z,213.42
2019-02-11T05:51:22.548Z,213.51
2019-02-11T05:52:22.771Z,213.43
2019-02-11T05:53:22.992Z,213.52
2019-02-11T05:54:23.247Z,213.48
2019-02-11T05:55:23.906Z,213.46
2019-02-11T05:56:23.659Z,213.51
2019-02-11T05:57:23.882Z,213.46
2019-02-11T05:58:24.101Z,213.44
2019-02-11T05:59:24.342Z,213.46
2019-02-11T06:00:24.550Z,213.43
2019-02-11T06:01:24.787Z,213.46
2019-02-11T06:02:24.987Z,213.42
2019-02-11T06:03:25.335Z,213.44
2019-02-11T06:04:25.464Z,213.46
2019-02-11T06:05:25.655Z,213.44
2019-02-11T06:06:25.896Z,213.46
2019-02-11T06:07:26.098Z,213.37
2019-02-11T06:08:26.332Z,213.37
2019-02-11T06:09:26.572Z,213.40
2019-02-11T06:10:26.781Z,213.37
2019-02-11T06:11:27.086Z,213.35
2019-02-11T06:12:27.205Z,213.38
2019-02-11T06:13:27.431Z,213.36
2019-02-11T06:14:27.672Z,213.37
2019-02-11T06:15:27.881Z,213.37
2019-02-11T06:16:28.115Z,213.32
2019-02-11T06:17:28.335Z,213.35
2019-02-11T06:18:28.526Z,213.38
2019-02-11T06:19:28.839Z,213.35
2019-02-11T06:20:28.988Z,213.37
2019-02-11T06:21:29.232Z,213.34
2019-02-11T06:22:29.440Z,213.30
2019-02-11T06:23:29.765Z,213.29
2019-02-11T06:24:29.877Z,213.29
2019-02-11T06:25:30.094Z,213.32
2019-02-11T06:26:30.341Z,213.37
2019-02-11T06:27:30.597Z,213.32
2019-02-11T06:28:30.791Z,213.32
2019-02-11T06:29:31.045Z,213.32
2019-02-11T06:30:31.211Z,213.35
2019-02-11T06:31:31.451Z,213.32
2019-02-11T06:32:31.647Z,213.36
2019-02-11T06:33:31.877Z,213.34
2019-02-11T06:34:33.824Z,213.32
2019-02-11T06:35:32.325Z,213.30
2019-02-11T06:36:32.686Z,213.30
2019-02-11T06:37:32.808Z,213.23
2019-02-11T06:38:32.991Z,213.23
2019-02-11T06:39:33.229Z,213.21
2019-02-11T06:40:33.418Z,213.13
2019-02-11T06:41:33.879Z,213.26
2019-02-11T06:42:33.900Z,213.23
2019-02-11T06:43:34.092Z,213.29
2019-02-11T06:44:34.459Z,213.28
2019-02-11T06:45:34.514Z,213.28
2019-02-11T06:46:34.755Z,213.26
2019-02-11T06:47:35.245Z,213.29
2019-02-11T06:48:35.216Z,213.35
2019-02-11T06:49:42.035Z,213.34
2019-02-11T06:50:35.662Z,213.32
2019-02-11T06:51:35.890Z,213.24
2019-02-11T06:52:40.689Z,213.29
2019-02-11T06:53:36.323Z,213.29
2019-02-11T06:54:40.600Z,213.32
2019-02-11T06:55:36.760Z,213.26
2019-02-11T06:56:41.630Z,213.23
2019-02-11T06:57:37.203Z,213.23
2019-02-11T06:58:37.430Z,213.30
2019-02-11T06:59:37.717Z,213.22
2019-02-11T07:00:37.906Z,213.21
2019-02-11T07:01:38.095Z,213.18
2019-02-11T07:02:38.301Z,213.17
2019-02-11T07:03:38.526Z,213.22
2019-02-11T07:04:38.797Z,213.17
2019-02-11T07:05:38.952Z,213.18
2019-02-11T07:06:39.211Z,213.17
2019-02-11T07:07:39.406Z,213.09
2019-02-11T07:08:39.670Z,213.11
2019-02-11T07:09:39.885Z,213.12
2019-02-11T07:10:40.063Z,213.12
2019-02-11T07:11:40.314Z,213.15
2019-02-11T07:12:40.533Z,213.11
2019-02-11T07:13:40.754Z,213.09
2019-02-11T07:14:41.040Z,213.05
2019-02-11T07:15:41.198Z,212.99
2019-02-11T07:16:41.438Z,213.03
2019-02-11T07:17:41.769Z,213.06
2019-02-11T07:18:41.874Z,213.01
2019-02-11T07:19:42.145Z,212.98
2019-02-11T07:20:42.314Z,212.99
2019-02-11T07:21:42.540Z,213.05
2019-02-11T07:22:42.746Z,213.08
2019-02-11T07:23:42.982Z,213.07
2019-02-11T07:24:43.240Z,213.04
2019-02-11T07:25:43.657Z,213.09
2019-02-11T07:26:43.631Z,213.01
2019-02-11T07:27:43.907Z,213.01
2019-02-11T07:28:44.133Z,213.03
2019-02-11T07:29:44.343Z,213.05
2019-02-11T07:30:44.559Z,212.97
2019-02-11T07:31:44.781Z,212.94
2019-02-11T07:32:45.003Z,213.13
2019-02-11T07:33:45.308Z,212.98
2019-02-11T07:34:45.493Z,212.98
2019-02-11T07:35:45.675Z,212.93
2019-02-11T07:36:45.906Z,212.94
2019-02-11T07:37:46.141Z,212.97
2019-02-11T07:38:46.342Z,212.92
2019-02-11T07:39:46.612Z,212.88
2019-02-11T07:40:46.830Z,212.88
2019-02-11T07:41:47.066Z,212.85
2019-02-11T07:42:47.248Z,212.88
2019-02-11T07:43:47.450Z,212.81
2019-02-11T07:44:47.682Z,212.78
2019-02-11T07:45:47.902Z,212.87
2019-02-11T07:46:48.126Z,212.85
2019-02-11T07:47:48.370Z,212.84
2019-02-11T07:48:48.602Z,212.83
2019-02-11T07:49:48.834Z,212.83
2019-02-11T07:50:49.066Z,212.83
2019-02-11T07:51:49.241Z,212.83
2019-02-11T07:52:49.480Z,212.79
2019-02-11T07:53:49.690Z,212.76
2019-02-11T07:54:49.916Z,212.77
2019-02-11T07:55:50.128Z,212.76
2019-02-11T07:56:50.351Z,212.71
2019-02-11T07:57:50.618Z,212.76
2019-02-11T07:58:50.936Z,212.71
2019-02-11T07:59:51.054Z,212.71
2019-02-11T08:00:51.248Z,212.74
2019-02-11T08:01:51.483Z,212.82
2019-02-11T08:02:51.718Z,212.83
2019-02-11T08:03:51.953Z,212.88
2019-02-11T08:04:52.167Z,212.89
2019-02-11T08:05:52.389Z,212.98
2019-02-11T08:06:52.694Z,213.01
2019-02-11T08:07:52.843Z,213.12
2019-02-11T08:08:53.045Z,213.11
2019-02-11T08:09:53.272Z,213.09
2019-02-11T08:10:53.477Z,213.13
2019-02-11T08:11:53.676Z,213.12
2019-02-11T08:12:53.943Z,213.13
2019-02-11T08:13:54.158Z,213.13
2019-02-11T08:14:54.420Z,213.13
2019-02-11T08:15:54.576Z,213.15
2019-02-11T08:16:54.800Z,212.99
2019-02-11T08:17:55.024Z,213.04
2019-02-11T08:18:55.275Z,212.99
2019-02-11T08:19:55.804Z,213.09
2019-02-11T08:20:55.766Z,213.06
2019-02-11T08:21:55.906Z,212.98
2019-02-11T08:22:56.175Z,213.12
2019-02-11T08:23:56.378Z,212.91
2019-02-11T08:24:56.618Z,212.95
2019-02-11T08:25:56.857Z,212.94
2019-02-11T08:26:57.056Z,212.91
2019-02-11T08:27:57.291Z,212.92
2019-02-11T08:28:57.507Z,212.87
2019-02-11T08:29:57.688Z,212.89
2019-02-11T08:30:57.970Z,212.88
2019-02-11T08:31:58.264Z,212.74
2019-02-11T08:32:58.407Z,212.71
2019-02-11T08:33:58.599Z,212.79
2019-02-11T08:34:58.821Z,212.68
2019-02-11T08:35:59.084Z,212.64
2019-02-11T08:36:59.307Z,212.58
2019-02-11T08:37:59.547Z,212.60
2019-02-11T08:38:59.763Z,212.53
2019-02-11T08:40:00.071Z,212.65
2019-02-11T08:41:00.204Z,212.59
2019-02-11T08:42:00.423Z,212.62
2019-02-11T08:43:01.341Z,212.61
2019-02-11T08:44:00.890Z,212.55
2019-02-11T08:45:01.087Z,212.57
2019-02-11T08:46:01.340Z,212.61
2019-02-11T08:47:01.539Z,212.46
2019-02-11T08:48:01.840Z,212.48
2019-02-11T08:49:01.993Z,212.48
2019-02-11T08:50:02.185Z,212.53
2019-02-11T08:51:02.421Z,212.48
2019-02-11T08:52:02.642Z,212.51
2019-02-11T08:53:02.876Z,212.51
2019-02-11T08:54:03.092Z,212.45
2019-02-11T08:55:03.313Z,212.48
2019-02-11T08:56:03.640Z,212.45
2019-02-11T08:57:03.717Z,212.41
2019-02-11T08:58:03.972Z,212.43
2019-02-11T08:59:04.196Z,212.48
2019-02-11T09:00:04.408Z,212.44
2019-02-11T09:01:04.651Z,212.46
2019-02-11T09:02:04.856Z,212.45
2019-02-11T09:03:05.086Z,212.43
2019-02-11T09:04:05.370Z,212.45
2019-02-11T09:05:05.597Z,212.46
2019-02-11T09:06:05.786Z,212.48
2019-02-11T09:07:05.980Z,212.49
2019-02-11T09:08:06.210Z,212.48
2019-02-11T09:09:06.452Z,212.53
2019-02-11T09:10:06.655Z,212.57
2019-02-11T09:11:06.891Z,212.44
2019-02-11T09:12:07.098Z,212.48
2019-02-11T09:13:07.408Z,212.49
2019-02-11T09:14:07.568Z,212.48
2019-02-11T09:15:07.767Z,212.48
2019-02-11T09:16:07.996Z,212.51
2019-02-11T09:17:10.350Z,212.46
2019-02-11T09:18:08.446Z,212.48
2019-02-11T09:19:08.649Z,212.51
2019-02-11T09:20:08.878Z,212.44
2019-02-11T09:21:09.206Z,212.46
2019-02-11T09:22:09.309Z,212.48
2019-02-11T09:23:09.551Z,212.44
2019-02-11T09:24:09.738Z,212.40
2019-02-11T09:25:09.972Z,212.38
2019-02-11T09:26:10.219Z,212.31
2019-02-11T09:27:10.419Z,212.35
2019-02-11T09:28:10.659Z,212.29
2019-02-11T09:29:10.943Z,265.37
2019-02-11T09:30:11.054Z,263.36
2019-02-11T09:31:11.311Z,266.30
2019-02-11T09:32:11.524Z,264.24
2019-02-11T09:33:11.758Z,264.35
2019-02-11T09:34:11.969Z,264.39
2019-02-11T09:35:12.212Z,265.75
2019-02-11T09:36:12.406Z,262.78
2019-02-11T09:37:12.678Z,265.94
2019-02-11T09:38:12.883Z,263.61
2019-02-11T09:39:13.076Z,263.67
2019-02-11T09:40:13.310Z,265.79
2019-02-11T09:41:13.541Z,265.56
2019-02-11T09:42:13.737Z,265.69
2019-02-11T09:43:13.989Z,265.02
2019-02-11T09:44:14.222Z,263.84
2019-02-11T09:45:14.484Z,264.19
2019-02-11T09:46:14.740Z,266.44
2019-02-11T09:47:14.886Z,264.15
2019-02-11T09:48:15.117Z,262.77
2019-02-11T09:49:15.351Z,263.44
2019-02-11T09:50:15.580Z,266.27
2019-02-11T09:51:15.809Z,262.59
2019-02-11T09:52:15.984Z,263.87
2019-02-11T09:53:16.212Z,264.87
2019-02-11T09:54:16.597Z,265.66
2019-02-11T09:55:16.715Z,263.62
2019-02-11T09:56:16.952Z,264.57
2019-02-11T09:57:17.143Z,265.28
2019-02-11T09:58:17.600Z,263.33
2019-02-11T09:59:17.622Z,265.34
2019-02-11T10:00:18.035Z,264.32
2019-02-11T10:01:18.063Z,262.66
2019-02-11T10:02:18.353Z,263.75
2019-02-11T10:03:18.455Z,264.76
2019-02-11T10:04:18.722Z,264.35
2019-02-11T10:05:18.951Z,263.72
2019-02-11T10:06:19.174Z,263.51
2019-02-11T10:07:19.370Z,265.63
2019-02-11T10:08:19.595Z,265.05
2019-02-11T10:09:19.817Z,263.88
2019-02-11T10:10:20.107Z,259.36
2019-02-11T10:11:20.253Z,260.89
2019-02-11T10:12:21.378Z,262.25
2019-02-11T10:13:20.689Z,261.14
2019-02-11T10:14:20.921Z,262.37
2019-02-11T10:15:21.152Z,261.02
2019-02-11T10:16:22.251Z,262.73
2019-02-11T10:17:29.435Z,261.94
2019-02-11T10:18:22.845Z,263.20
2019-02-11T10:19:22.132Z,262.54
2019-02-11T10:20:22.293Z,265.46
2019-02-11T10:21:22.507Z,263.99
2019-02-11T10:22:22.728Z,262.69
2019-02-11T10:23:22.950Z,264.16
2019-02-11T10:24:23.183Z,262.95
2019-02-11T10:25:24.159Z,264.53
2019-02-11T10:26:23.630Z,264.14
2019-02-11T10:27:23.966Z,262.38
2019-02-11T10:28:24.062Z,262.92
2019-02-11T10:29:24.301Z,264.42
2019-02-11T10:30:24.509Z,264.24
2019-02-11T10:31:24.740Z,211.72
2019-02-11T10:32:24.945Z,211.72
2019-02-11T10:33:25.174Z,211.73
2019-02-11T10:34:25.420Z,211.71
2019-02-11T10:35:25.713Z,211.65
2019-02-11T10:36:25.936Z,211.73
2019-02-11T10:37:26.073Z,211.72
2019-02-11T10:38:27.604Z,211.63
2019-02-11T10:39:26.536Z,211.73
2019-02-11T10:40:26.748Z,211.71
2019-02-11T10:41:26.985Z,211.66
2019-02-11T10:42:27.168Z,211.65
2019-02-11T10:43:27.488Z,211.67
2019-02-11T10:44:27.629Z,211.60
2019-02-11T10:45:36.245Z,211.50
2019-02-11T10:46:29.062Z,211.49
2019-02-11T10:47:28.310Z,211.46
2019-02-11T10:48:28.508Z,211.44
2019-02-11T10:49:28.760Z,211.44
2019-02-11T10:50:29.024Z,211.45
2019-02-11T10:51:29.219Z,211.35
2019-02-11T10:52:29.443Z,211.38
2019-02-11T10:53:29.642Z,261.30
2019-02-11T10:54:29.896Z,263.00
2019-02-11T10:55:30.110Z,262.12
2019-02-11T10:56:30.315Z,265.03
2019-02-11T10:57:30.570Z,263.56
2019-02-11T10:58:30.769Z,264.09
2019-02-11T10:59:31.013Z,264.98
2019-02-11T11:00:31.343Z,263.32
2019-02-11T11:01:31.435Z,264.83
2019-02-11T11:02:31.675Z,262.08
2019-02-11T11:03:31.880Z,261.54
2019-02-11T11:04:32.103Z,264.08
2019-02-11T11:05:32.348Z,262.51
2019-02-11T11:06:32.565Z,263.43
2019-02-11T11:07:32.798Z,263.04
2019-02-11T11:08:33.148Z,265.41
2019-02-11T11:09:33.228Z,265.38
2019-02-11T11:10:33.466Z,261.87
2019-02-11T11:11:33.674Z,261.38
2019-02-11T11:12:33.915Z,263.64
2019-02-11T11:13:34.119Z,262.62
2019-02-11T11:14:34.362Z,262.11
2019-02-11T11:15:34.562Z,263.95
2019-02-11T11:16:34.830Z,262.78
2019-02-11T11:17:35.031Z,264.34
2019-02-11T11:18:35.238Z,264.07
2019-02-11T11:19:35.481Z,262.71
2019-02-11T11:20:35.695Z,264.10
2019-02-11T11:21:35.892Z,263.93
2019-02-11T11:22:36.148Z,265.46
2019-02-11T11:23:36.357Z,265.32
2019-02-11T11:24:36.671Z,264.28
2019-02-11T11:25:36.781Z,261.74
2019-02-11T11:26:36.990Z,262.40
2019-02-11T11:27:37.247Z,265.10
2019-02-11T11:28:37.475Z,263.26
2019-02-11T11:29:37.720Z,265.95
2019-02-11T11:30:37.927Z,263.51
2019-02-11T11:31:38.147Z,263.65
2019-02-11T11:32:38.397Z,261.92
2019-02-11T11:33:38.676Z,262.28
2019-02-11T11:34:39.064Z,264.68
2019-02-11T11:35:39.061Z,263.60
2019-02-11T11:36:39.260Z,262.77
2019-02-11T11:37:39.500Z,262.89
2019-02-11T11:38:39.688Z,262.37
2019-02-11T11:39:39.947Z,263.18
2019-02-11T11:40:40.171Z,264.33
2019-02-11T11:41:40.508Z,262.15
2019-02-11T11:42:40.611Z,261.82
2019-02-11T11:43:40.806Z,262.29
2019-02-11T11:44:41.030Z,263.30
2019-02-11T11:45:41.273Z,263.76
2019-02-11T11:46:46.900Z,263.30
2019-02-11T11:47:42.733Z,263.26
2019-02-11T11:48:41.937Z,262.48
2019-02-11T11:49:42.195Z,262.69
2019-02-11T11:50:42.415Z,265.38
2019-02-11T11:51:42.613Z,262.10
2019-02-11T11:52:42.853Z,264.88
2019-02-11T11:53:43.057Z,264.86
2019-02-11T11:54:43.259Z,263.04
2019-02-11T11:55:43.536Z,263.30
2019-02-11T11:56:43.766Z,262.76
2019-02-11T11:57:44.070Z,262.45
2019-02-11T11:58:44.193Z,211.31
2019-02-11T11:59:44.418Z,263.89
2019-02-11T12:00:44.669Z,263.37
2019-02-11T12:01:44.865Z,261.75
2019-02-11T12:03:00.343Z,262.31
2019-02-11T12:03:46.300Z,263.99
2019-02-11T12:04:45.523Z,264.75
2019-02-11T12:05:45.804Z,262.36
2019-02-11T12:06:45.969Z,261.88
2019-02-11T12:07:46.234Z,260.21
2019-02-11T12:08:46.435Z,262.89
2019-02-11T12:09:46.658Z,263.94
2019-02-11T12:10:46.933Z,261.61
2019-02-11T12:11:47.089Z,262.72
2019-02-11T12:12:47.370Z,264.51
2019-02-11T12:13:47.578Z,264.57
2019-02-11T12:14:47.975Z,264.51
2019-02-11T12:15:48.054Z,264.88
2019-02-11T12:16:57.014Z,263.36
2019-02-11T12:17:49.470Z,263.72
2019-02-11T12:18:48.675Z,263.65
2019-02-11T12:19:48.900Z,265.28
2019-02-11T12:20:49.157Z,263.95
2019-02-11T12:21:49.338Z,263.63
2019-02-11T12:22:49.711Z,264.72
2019-02-11T12:23:49.796Z,264.58
2019-02-11T12:24:50.017Z,265.05
2019-02-11T12:25:50.265Z,264.04
2019-02-11T12:26:50.460Z,263.67
2019-02-11T12:27:50.686Z,264.17
2019-02-11T12:28:50.916Z,265.22
2019-02-11T12:29:51.375Z,262.81
2019-02-11T12:30:53.438Z,264.21